createdAt,value
2022-11-26T00:01:31.093Z,4.18
2022-11-26T00:06:44.980Z,4.88
2022-11-26T00:11:46.868Z,4.40
2022-11-26T00:16:48.661Z,3.80
2022-11-26T00:21:50.649Z,4.85
2022-11-26T00:26:52.896Z,4.50
2022-11-26T00:31:54.778Z,3.80
2022-11-26T00:36:56.622Z,3.65
2022-11-26T00:41:58.558Z,3.45
2022-11-26T00:47:00.557Z,5.38
2022-11-26T00:52:02.669Z,4.07
2022-11-26T00:57:04.570Z,4.47
2022-11-26T01:02:06.522Z,4.55
2022-11-26T01:07:10.717Z,4.97
2022-11-26T01:12:15.599Z,4.80
2022-11-26T01:17:17.380Z,4.53
2022-11-26T01:22:24.008Z,5.13
2022-11-26T01:27:25.810Z,5.57
2022-11-26T01:32:29.536Z,4.72
2022-11-26T01:37:31.784Z,4.30
2022-11-26T01:42:46.963Z,5.50
2022-11-26T01:47:50.011Z,5.18
2022-11-26T01:52:52.819Z,4.38
2022-11-26T01:57:54.666Z,4.75
2022-11-26T02:02:56.739Z,5.45
2022-11-26T02:08:00.405Z,4.85
2022-11-26T02:13:02.449Z,5.38
2022-11-26T02:18:08.167Z,4.80
2022-11-26T02:23:31.141Z,4.80
2022-11-26T02:28:57.043Z,4.32
2022-11-26T02:34:15.150Z,5.05
2022-11-26T02:39:23.160Z,5.47
2022-11-26T02:44:45.395Z,4.28
2022-11-26T02:49:50.773Z,4.40
2022-11-26T02:54:54.320Z,4.03
2022-11-26T02:59:56.733Z,4.45
2022-11-26T03:05:01.754Z,5.18
2022-11-26T03:10:04.739Z,4.75
2022-11-26T03:15:07.666Z,5.22
2022-11-26T03:20:10.150Z,5.55
2022-11-26T03:25:12.551Z,5.63
2022-11-26T03:30:14.977Z,4.88
2022-11-26T03:35:16.727Z,4.50
2022-11-26T03:40:19.060Z,4.53
2022-11-26T03:45:23.945Z,4.75
2022-11-26T03:50:25.743Z,4.75
2022-11-26T03:55:27.648Z,4.07
2022-11-26T04:00:29.878Z,5.47
2022-11-26T04:05:32.188Z,5.20
2022-11-26T04:10:34.257Z,4.53
2022-11-26T04:15:36.093Z,4.53
2022-11-26T04:20:38.103Z,4.25
2022-11-26T04:25:39.843Z,5.50
2022-11-26T04:30:42.498Z,5.20
2022-11-26T04:35:44.510Z,5.15
2022-11-26T04:40:48.172Z,6.18
2022-11-26T04:45:49.915Z,5.63
2022-11-26T04:50:51.959Z,6.03
2022-11-26T04:55:53.692Z,6.88
2022-11-26T05:00:55.456Z,6.07
2022-11-26T05:05:57.319Z,6.28
2022-11-26T05:11:01.600Z,6.07
2022-11-26T05:16:03.690Z,5.43
2022-11-26T05:21:07.207Z,4.90
2022-11-26T05:26:08.986Z,5.05
2022-11-26T05:31:12.164Z,5.43
2022-11-26T05:36:14.011Z,5.90
2022-11-26T05:41:15.990Z,6.30
2022-11-26T05:46:18.833Z,5.63
2022-11-26T05:51:20.647Z,4.55
2022-11-26T05:56:22.681Z,5.63
2022-11-26T06:01:24.907Z,5.68
2022-11-26T06:06:26.830Z,6.65
2022-11-26T06:11:28.673Z,5.93
2022-11-26T06:16:30.747Z,7.95
2022-11-26T06:21:32.629Z,5.78
2022-11-26T06:26:34.525Z,6.70
2022-11-26T06:31:36.546Z,6.22
2022-11-26T06:36:38.640Z,7.45
2022-11-26T06:41:40.710Z,6.70
2022-11-26T06:46:42.737Z,6.57
2022-11-26T06:51:44.681Z,5.22
2022-11-26T06:56:46.764Z,5.03
2022-11-26T07:01:48.693Z,5.35
2022-11-26T07:06:50.612Z,5.15
2022-11-26T07:11:52.597Z,6.10
2022-11-26T07:16:54.468Z,6.30
2022-11-26T07:21:56.283Z,6.53
2022-11-26T07:26:58.250Z,6.50
2022-11-26T07:32:00.499Z,5.85
2022-11-26T07:37:02.559Z,5.40
2022-11-26T07:42:07.159Z,5.35
2022-11-26T07:47:09.084Z,5.38
2022-11-26T07:52:11.025Z,6.25
2022-11-26T07:57:12.833Z,5.90
2022-11-26T08:02:16.113Z,6.97
2022-11-26T08:07:25.872Z,5.07
2022-11-26T08:12:31.205Z,4.38
2022-11-26T08:17:32.968Z,4.60
2022-11-26T08:22:35.066Z,4.50
2022-11-26T08:27:36.904Z,5.68
2022-11-26T08:32:38.715Z,4.97
2022-11-26T08:37:42.553Z,5.40
2022-11-26T08:42:44.789Z,5.13
2022-11-26T08:47:46.674Z,5.28
2022-11-26T08:52:48.602Z,4.68
2022-11-26T08:57:50.501Z,4.10
2022-11-26T09:02:52.468Z,4.40
2022-11-26T09:07:55.142Z,3.85
2022-11-26T09:12:57.192Z,4.13
2022-11-26T09:17:58.978Z,3.85
2022-11-26T09:23:00.774Z,3.55
2022-11-26T09:28:02.598Z,3.75
2022-11-26T09:33:04.528Z,3.78
2022-11-26T09:38:06.588Z,3.72
2022-11-26T09:43:20.269Z,3.45
2022-11-26T09:48:26.318Z,2.88
2022-11-26T09:53:33.320Z,2.70
2022-11-26T09:58:48.822Z,2.67
2022-11-26T10:03:52.240Z,2.78
2022-11-26T10:09:15.230Z,2.88
2022-11-26T10:14:26.125Z,2.67
2022-11-26T10:19:42.537Z,2.22
2022-11-26T10:24:44.773Z,4.20
2022-11-26T10:29:52.194Z,3.38
2022-11-26T10:34:56.406Z,4.07
2022-11-26T10:40:11.485Z,2.60
2022-11-26T10:45:21.007Z,3.08
2022-11-26T10:50:47.116Z,2.35
2022-11-26T10:55:47.585Z,3.00
2022-11-26T11:00:49.506Z,2.78
2022-11-26T11:05:52.340Z,2.60
2022-11-26T11:10:57.572Z,2.80
2022-11-26T11:16:02.742Z,2.20
2022-11-26T11:21:06.611Z,2.05
2022-11-26T11:26:18.197Z,2.47
2022-11-26T11:31:22.991Z,2.20
2022-11-26T11:36:29.292Z,1.75
2022-11-26T11:41:36.659Z,2.47
2022-11-26T11:47:10.823Z,2.80
2022-11-26T11:52:45.764Z,2.17
2022-11-26T11:57:58.072Z,2.72
2022-11-26T12:03:11.744Z,2.83
2022-11-26T12:08:22.939Z,3.35
2022-11-26T12:13:28.320Z,2.88
2022-11-26T12:18:54.118Z,2.72
2022-11-26T12:23:55.984Z,2.63
2022-11-26T12:29:14.331Z,2.40
2022-11-26T12:39:51.921Z,2.30
2022-11-26T12:45:03.094Z,3.15
2022-11-26T12:50:10.930Z,2.85
2022-11-26T13:00:26.088Z,3.00
2022-11-26T13:05:58.361Z,3.40
2022-11-26T13:11:15.224Z,3.10
2022-11-26T13:16:49.467Z,3.10
2022-11-26T13:22:11.043Z,2.85
2022-11-26T13:27:30.099Z,2.00
2022-11-26T13:32:37.639Z,2.95
2022-11-26T13:37:51.388Z,2.55
2022-11-26T13:42:56.243Z,2.63
2022-11-26T13:48:06.366Z,2.10
2022-11-26T13:53:31.779Z,2.90
2022-11-26T13:58:48.103Z,2.03
2022-11-26T14:03:50.624Z,2.05
2022-11-26T14:08:54.029Z,2.40
2022-11-26T14:14:24.862Z,2.60
2022-11-26T14:19:42.402Z,2.88
2022-11-26T14:24:50.195Z,2.60
2022-11-26T14:30:06.098Z,2.50
2022-11-26T14:35:20.945Z,2.65
2022-11-26T14:40:33.221Z,2.42
2022-11-26T14:45:35.952Z,2.63
2022-11-26T14:50:38.229Z,2.20
2022-11-26T14:55:40.053Z,3.20
2022-11-26T15:00:42.116Z,3.80
2022-11-26T15:05:45.323Z,2.38
2022-11-26T15:10:54.521Z,2.35
2022-11-26T15:15:59.250Z,2.65
2022-11-26T15:21:04.002Z,2.50
2022-11-26T15:26:06.448Z,2.33
2022-11-26T15:31:10.145Z,1.90
2022-11-26T15:36:17.431Z,2.60
2022-11-26T15:41:20.183Z,2.40
2022-11-26T15:46:34.958Z,3.33
2022-11-26T15:51:52.023Z,3.05
2022-11-26T15:57:05.060Z,2.47
2022-11-26T16:02:21.901Z,2.92
2022-11-26T16:07:27.939Z,3.63
2022-11-26T16:12:32.850Z,3.13
2022-11-26T16:17:35.186Z,3.28
2022-11-26T16:22:36.967Z,3.47
2022-11-26T16:27:38.907Z,3.58
2022-11-26T16:32:40.752Z,3.70
2022-11-26T16:37:48.153Z,4.22
2022-11-26T16:42:51.203Z,3.90
2022-11-26T16:47:55.863Z,4.45
2022-11-26T16:52:57.738Z,3.92
2022-11-26T16:58:02.448Z,4.00
2022-11-26T17:03:04.396Z,4.70
2022-11-26T17:08:10.222Z,3.65
2022-11-26T17:13:12.484Z,4.32
2022-11-26T17:18:23.080Z,3.00
2022-11-26T17:23:25.136Z,4.03
2022-11-26T17:28:28.177Z,4.38
2022-11-26T17:33:30.070Z,5.28
2022-11-26T17:38:32.357Z,4.95
2022-11-26T17:43:35.749Z,4.95
2022-11-26T17:48:48.957Z,3.70
2022-11-26T17:53:55.340Z,3.85
2022-11-26T17:59:01.445Z,3.20
2022-11-26T18:04:06.780Z,3.28
2022-11-26T18:09:12.003Z,3.33
2022-11-26T18:14:17.318Z,3.92
2022-11-26T18:19:22.221Z,3.53
2022-11-26T18:24:24.136Z,3.45
2022-11-26T18:29:27.714Z,3.80
2022-11-26T18:34:29.595Z,3.50
2022-11-26T18:39:31.529Z,2.90
2022-11-26T18:44:33.463Z,2.92
2022-11-26T18:49:35.267Z,2.75
2022-11-26T18:54:37.003Z,3.88
2022-11-26T18:59:39.007Z,3.78
2022-11-26T19:04:41.365Z,3.30
2022-11-26T19:09:43.486Z,3.08
2022-11-26T19:14:45.420Z,4.22
2022-11-26T19:19:47.996Z,3.53
2022-11-26T19:24:49.824Z,3.80
2022-11-26T19:29:51.643Z,3.75
2022-11-26T19:34:54.277Z,4.70
2022-11-26T19:39:56.048Z,4.47
2022-11-26T19:44:57.778Z,4.05
2022-11-26T19:49:59.503Z,3.85
2022-11-26T19:55:01.341Z,3.30
2022-11-26T20:00:06.659Z,3.45
2022-11-26T20:05:09.019Z,4.07
2022-11-26T20:10:11.367Z,4.00
2022-11-26T20:15:13.215Z,4.15
2022-11-26T20:20:15.196Z,5.15
2022-11-26T20:25:17.152Z,3.70
2022-11-26T20:30:20.371Z,3.83
2022-11-26T20:35:23.490Z,3.78
2022-11-26T20:40:25.381Z,4.75
2022-11-26T20:45:27.364Z,4.07
2022-11-26T20:50:29.684Z,4.78
2022-11-26T20:55:31.577Z,4.97
2022-11-26T21:00:33.442Z,3.80
2022-11-26T21:05:35.206Z,4.13
2022-11-26T21:10:39.532Z,4.07
2022-11-26T21:15:43.176Z,4.70
2022-11-26T21:20:45.007Z,5.13
2022-11-26T21:25:47.305Z,4.72
2022-11-26T21:30:49.206Z,4.78
2022-11-26T21:35:51.207Z,4.00
2022-11-26T21:40:53.058Z,4.45
2022-11-26T21:45:54.840Z,4.68
2022-11-26T21:51:02.837Z,6.80
2022-11-26T21:56:26.022Z,5.93
2022-11-26T22:01:30.339Z,5.07
2022-11-26T22:06:32.209Z,6.35
2022-11-26T22:11:37.247Z,5.10
2022-11-26T22:16:39.134Z,5.07
2022-11-26T22:21:42.073Z,5.97
2022-11-26T22:26:45.093Z,5.10
2022-11-26T22:31:48.530Z,5.82
2022-11-26T22:36:51.030Z,5.72
2022-11-26T22:41:52.951Z,6.18
2022-11-26T22:46:54.749Z,5.18
2022-11-26T22:51:56.490Z,5.82
2022-11-26T22:56:58.347Z,5.68
2022-11-26T23:02:00.339Z,5.35
2022-11-26T23:07:02.201Z,4.68
2022-11-26T23:12:04.256Z,4.93
2022-11-26T23:17:06.090Z,4.45
2022-11-26T23:22:08.012Z,5.05
2022-11-26T23:27:09.824Z,4.10
2022-11-26T23:32:11.643Z,4.00
2022-11-26T23:37:13.390Z,3.75
2022-11-26T23:42:15.261Z,4.60
2022-11-26T23:47:17.140Z,4.40
2022-11-26T23:52:18.980Z,4.00
2022-11-26T23:57:20.956Z,4.50
